Lake Stockholm, New Jersey
Current Conditions -  °F | °C
As of 10:53 AM on Sunday 23 Nov 2014 (Local Time) from KFWN Reporting Station
Broken Clouds Broken Clouds  
Wind Chill: 50°   Ceiling: 9000
Heat Index: 50°   Visibility: 10mi
Dew Point: 23°   Wind: 6mph
Humidity: 35%   Direction: NA
Pressure: 30.16"   Gusts: NA
Location:  41.1122°N, 74.4998°W
Report Text: KFWN 231553Z AUTO VRB05KT 10SM FEW065 BKN090 10/M05 A3016 RMK AO2 SLP217 T01001050
Loading
Personal Weather Stations






























Interactive Weather Map New forecast layout! Learn more

10-Day Weather Forecast

Advertisements
Track Severe Weather on mobile